Time,TemperatureF,DewpointF,PressureIn,WindDirection,WindDirectionDegrees,WindSpeedMPH,WindSpeedGustMPH,Humidity,HourlyPrecipIn,Conditions,Clouds,dailyrainin,SolarRadiationWatts/m^2,SoftwareType,DateUTC
2013-08-31 00:15:00,69.1,66.0,29.74,WNW,290,2.0,4.0,91,0.02,,,0.00,0,weatherlink.com 1.10,2013-08-31 04:15:00,
2013-08-31 00:30:00,68.5,66.0,29.73,SE,134,4.0,5.0,92,0.00,,,0.00,0,weatherlink.com 1.10,2013-08-31 04:30:00,
2013-08-31 00:45:00,67.9,66.0,29.72,East,93,1.0,4.0,93,0.00,,,0.00,0,weatherlink.com 1.10,2013-08-31 04:45:00,
2013-08-31 01:00:00,67.7,66.0,29.72,West,259,1.0,4.0,93,0.00,,,0.00,0,weatherlink.com 1.10,2013-08-31 05:00:00,
2013-08-31 01:15:00,67.5,66.0,29.73,SSW,202,0.0,3.0,93,0.00,,,0.00,0,weatherlink.com 1.10,2013-08-31 05:15:00,
2013-08-31 01:45:00,67.3,66.0,29.72,SSE,148,0.0,4.0,94,0.00,,,0.00,0,weatherlink.com 1.10,2013-08-31 05:45:00,
2013-08-31 02:00:00,67.1,65.0,29.71,SSE,161,1.0,3.0,94,0.00,,,0.00,0,weatherlink.com 1.10,2013-08-31 06:00:00,
2013-08-31 02:15:00,67.1,65.0,29.71,SSE,151,1.0,2.0,94,0.00,,,0.00,0,weatherlink.com 1.10,2013-08-31 06:15:00,
2013-08-31 02:30:00,67.2,66.0,29.71,South,171,0.0,2.0,94,0.00,,,0.00,0,weatherlink.com 1.10,2013-08-31 06:30:00,
2013-08-31 02:45:00,67.2,66.0,29.71,SSE,163,1.0,3.0,94,0.00,,,0.00,0,weatherlink.com 1.10,2013-08-31 06:45:00,
2013-08-31 03:00:00,67.2,66.0,29.71,East,89,2.0,3.0,94,0.00,,,0.00,0,weatherlink.com 1.10,2013-08-31 07:00:00,
2013-08-31 03:15:00,67.2,66.0,29.71,SE,136,2.0,3.0,94,0.00,,,0.00,0,weatherlink.com 1.10,2013-08-31 07:15:00,
2013-08-31 03:30:00,67.2,66.0,29.71,ESE,114,1.0,4.0,94,0.00,,,0.00,0,weatherlink.com 1.10,2013-08-31 07:30:00,
2013-08-31 03:45:00,67.3,66.0,29.70,SSE,150,1.0,4.0,94,0.00,,,0.00,0,weatherlink.com 1.10,2013-08-31 07:45:00,
2013-08-31 04:00:00,67.3,66.0,29.70,SSE,163,2.0,3.0,94,0.00,,,0.00,0,weatherlink.com 1.10,2013-08-31 08:00:00,
2013-08-31 04:15:00,67.3,65.0,29.70,SSE,147,1.0,2.0,93,0.00,,,0.00,0,weatherlink.com 1.10,2013-08-31 08:15:00,
2013-08-31 04:30:00,67.2,65.0,29.70,SSE,148,1.0,4.0,93,0.00,,,0.00,0,weatherlink.com 1.10,2013-08-31 08:30:00,
2013-08-31 04:45:00,67.2,65.0,29.70,SE,142,2.0,3.0,93,0.00,,,0.00,0,weatherlink.com 1.10,2013-08-31 08:45:00,
2013-08-31 05:00:00,67.0,65.0,29.70,SSE,148,1.0,3.0,93,0.00,,,0.00,0,weatherlink.com 1.10,2013-08-31 09:00:00,
2013-08-31 05:15:00,66.9,65.0,29.70,SSE,165,1.0,2.0,93,0.00,,,0.00,0,weatherlink.com 1.10,2013-08-31 09:15:00,
2013-08-31 05:30:00,66.8,65.0,29.70,SE,144,1.0,3.0,93,0.00,,,0.00,0,weatherlink.com 1.10,2013-08-31 09:30:00,
2013-08-31 05:45:00,67.0,65.0,29.71,SE,133,1.0,3.0,93,0.00,,,0.00,0,weatherlink.com 1.10,2013-08-31 09:45:00,
2013-08-31 06:00:00,66.9,65.0,29.71,SE,142,0.0,3.0,93,0.00,,,0.00,0,weatherlink.com 1.10,2013-08-31 10:00:00,
2013-08-31 06:15:00,66.9,65.0,29.71,NNE,19,3.0,3.0,93,0.00,,,0.00,0,weatherlink.com 1.10,2013-08-31 10:15:00,
2013-08-31 06:30:00,66.9,65.0,29.72,NE,46,1.0,4.0,93,0.00,,,0.00,7,weatherlink.com 1.10,2013-08-31 10:30:00,
2013-08-31 06:45:00,66.8,65.0,29.72,NNE,16,2.0,4.0,94,0.00,,,0.00,11,weatherlink.com 1.10,2013-08-31 10:45:00,
2013-08-31 07:00:00,66.6,65.0,29.73,NNE,27,2.0,3.0,94,0.00,,,0.00,18,weatherlink.com 1.10,2013-08-31 11:00:00,
2013-08-31 07:15:00,66.7,65.0,29.73,NNW,341,2.0,4.0,94,0.00,,,0.00,21,weatherlink.com 1.10,2013-08-31 11:15:00,
2013-08-31 07:30:00,66.7,65.0,29.73,NNE,29,3.0,4.0,94,0.00,,,0.00,42,weatherlink.com 1.10,2013-08-31 11:30:00,
2013-08-31 07:45:00,66.8,65.0,29.73,North,355,3.0,4.0,94,0.00,,,0.00,32,weatherlink.com 1.10,2013-08-31 11:45:00,
2013-08-31 08:00:00,66.9,65.0,29.73,East,86,1.0,4.0,94,0.00,,,0.00,26,weatherlink.com 1.10,2013-08-31 12:00:00,
2013-08-31 08:15:00,67.1,65.0,29.73,East,85,3.0,4.0,94,0.00,,,0.00,25,weatherlink.com 1.10,2013-08-31 12:15:00,
2013-08-31 08:30:00,67.1,65.0,29.73,SSE,152,0.0,2.0,94,0.00,,,0.00,40,weatherlink.com 1.10,2013-08-31 12:30:00,
2013-08-31 08:45:00,67.3,66.0,29.73,SE,144,2.0,3.0,94,0.00,,,0.00,47,weatherlink.com 1.10,2013-08-31 12:45:00,
2013-08-31 09:00:00,67.3,66.0,29.73,SSE,153,2.0,4.0,94,0.00,,,0.00,65,weatherlink.com 1.10,2013-08-31 13:00:00,
2013-08-31 09:15:00,67.5,66.0,29.73,SE,131,2.0,3.0,94,0.00,,,0.00,77,weatherlink.com 1.10,2013-08-31 13:15:00,
2013-08-31 09:30:00,67.9,66.0,29.73,ENE,71,1.0,2.0,94,0.00,,,0.00,76,weatherlink.com 1.10,2013-08-31 13:30:00,
2013-08-31 09:45:00,68.1,66.0,29.73,SE,144,0.0,3.0,94,0.00,,,0.00,91,weatherlink.com 1.10,2013-08-31 13:45:00,
2013-08-31 10:00:00,68.5,67.0,29.73,East,101,1.0,1.0,93,0.00,,,0.00,93,weatherlink.com 1.10,2013-08-31 14:00:00,
2013-08-31 10:15:00,68.8,67.0,29.73,East,98,1.0,2.0,93,0.01,,,0.01,102,weatherlink.com 1.10,2013-08-31 14:15:00,
2013-08-31 10:30:00,69.1,67.0,29.73,North,5,2.0,3.0,93,0.01,,,0.01,93,weatherlink.com 1.10,2013-08-31 14:30:00,
2013-08-31 10:45:00,69.3,67.0,29.74,NE,54,2.0,3.0,93,0.01,,,0.01,88,weatherlink.com 1.10,2013-08-31 14:45:00,
2013-08-31 11:00:00,69.3,67.0,29.74,NNW,348,2.0,4.0,93,0.01,,,0.01,56,weatherlink.com 1.10,2013-08-31 15:00:00,
2013-08-31 11:15:00,69.3,67.0,29.75,North,360,2.0,3.0,93,0.01,,,0.02,56,weatherlink.com 1.10,2013-08-31 15:15:00,
2013-08-31 11:30:00,69.1,67.0,29.75,NNE,32,2.0,3.0,93,0.01,,,0.02,93,weatherlink.com 1.10,2013-08-31 15:30:00,
2013-08-31 11:45:00,68.8,67.0,29.75,NE,36,3.0,5.0,93,0.03,,,0.04,74,weatherlink.com 1.10,2013-08-31 15:45:00,
2013-08-31 12:00:00,69.1,67.0,29.75,NNE,15,1.0,4.0,94,0.06,,,0.07,81,weatherlink.com 1.10,2013-08-31 16:00:00,
2013-08-31 12:15:00,68.6,67.0,29.74,North,5,3.0,5.0,94,0.05,,,0.07,156,weatherlink.com 1.10,2013-08-31 16:15:00,
2013-08-31 12:30:00,68.9,67.0,29.74,NE,55,2.0,4.0,94,0.05,,,0.07,302,weatherlink.com 1.10,2013-08-31 16:30:00,
2013-08-31 12:45:00,69.9,68.0,29.73,NE,51,4.0,4.0,93,0.03,,,0.07,290,weatherlink.com 1.10,2013-08-31 16:45:00,
2013-08-31 13:00:00,70.6,68.0,29.73,ENE,69,0.0,3.0,91,0.00,,,0.07,193,weatherlink.com 1.10,2013-08-31 17:00:00,
2013-08-31 13:16:00,71.0,68.0,29.73,ENE,61,4.0,5.0,89,0.00,,,0.07,230,weatherlink.com 1.10,2013-08-31 17:16:00,
2013-08-31 13:31:00,71.1,68.0,29.73,North,5,2.0,4.0,89,0.00,,,0.07,278,weatherlink.com 1.10,2013-08-31 17:31:00,
2013-08-31 13:46:00,72.0,68.0,29.73,NNE,25,2.0,4.0,88,0.00,,,0.07,204,weatherlink.com 1.10,2013-08-31 17:46:00,
2013-08-31 14:01:00,71.7,68.0,29.72,ENE,70,2.0,5.0,87,0.00,,,0.07,239,weatherlink.com 1.10,2013-08-31 18:01:00,
2013-08-31 14:16:00,72.6,68.0,29.72,SSE,154,0.0,3.0,86,0.00,,,0.07,181,weatherlink.com 1.10,2013-08-31 18:16:00,
2013-08-31 14:31:00,73.5,68.0,29.72,NNE,31,0.0,2.0,84,0.00,,,0.07,237,weatherlink.com 1.10,2013-08-31 18:31:00,
2013-08-31 14:46:00,74.4,69.0,29.72,ENE,67,3.0,3.0,82,0.00,,,0.07,480,weatherlink.com 1.10,2013-08-31 18:46:00,
2013-08-31 15:01:00,75.0,69.0,29.71,ESE,123,2.0,5.0,81,0.00,,,0.07,322,weatherlink.com 1.10,2013-08-31 19:01:00,
2013-08-31 15:16:00,74.8,69.0,29.72,NNW,345,6.0,6.0,81,0.00,,,0.07,174,weatherlink.com 1.10,2013-08-31 19:16:00,
2013-08-31 15:31:00,73.6,68.0,29.72,NE,44,3.0,5.0,82,0.00,,,0.07,139,weatherlink.com 1.10,2013-08-31 19:31:00,
2013-08-31 15:46:00,73.2,68.0,29.72,North,9,1.0,4.0,83,0.00,,,0.07,113,weatherlink.com 1.10,2013-08-31 19:46:00,
2013-08-31 16:01:00,73.1,68.0,29.72,North,360,4.0,4.0,83,0.00,,,0.07,90,weatherlink.com 1.10,2013-08-31 20:01:00,
2013-08-31 16:16:00,72.8,68.0,29.72,NE,40,2.0,3.0,85,0.00,,,0.07,84,weatherlink.com 1.10,2013-08-31 20:16:00,
2013-08-31 16:31:00,72.8,68.0,29.72,NNE,19,0.0,5.0,85,0.00,,,0.07,62,weatherlink.com 1.10,2013-08-31 20:31:00,
2013-08-31 16:46:00,73.0,68.0,29.72,NE,40,2.0,3.0,85,0.00,,,0.07,62,weatherlink.com 1.10,2013-08-31 20:46:00,
2013-08-31 17:01:00,72.9,68.0,29.71,NNE,26,1.0,4.0,85,0.00,,,0.07,58,weatherlink.com 1.10,2013-08-31 21:01:00,
2013-08-31 17:16:00,72.7,68.0,29.72,NW,320,3.0,4.0,86,0.00,,,0.07,44,weatherlink.com 1.10,2013-08-31 21:16:00,
2013-08-31 17:31:00,72.8,68.0,29.72,NNE,32,2.0,3.0,86,0.00,,,0.07,40,weatherlink.com 1.10,2013-08-31 21:31:00,
2013-08-31 17:46:00,72.9,69.0,29.73,NNW,347,2.0,3.0,87,0.00,,,0.07,32,weatherlink.com 1.10,2013-08-31 21:46:00,
2013-08-31 18:01:00,72.8,68.0,29.73,NE,49,3.0,4.0,86,0.00,,,0.07,30,weatherlink.com 1.10,2013-08-31 22:01:00,
2013-08-31 18:16:00,72.7,69.0,29.73,North,5,1.0,4.0,87,0.00,,,0.07,26,weatherlink.com 1.10,2013-08-31 22:16:00,
2013-08-31 18:31:00,72.3,68.0,29.74,North,360,7.0,7.0,87,0.00,,,0.07,14,weatherlink.com 1.10,2013-08-31 22:31:00,
2013-08-31 18:46:00,71.3,67.0,29.74,East,92,2.0,7.0,87,0.00,,,0.07,11,weatherlink.com 1.10,2013-08-31 22:46:00,
2013-08-31 19:01:00,70.6,67.0,29.74,NNE,30,1.0,5.0,88,0.00,,,0.07,11,weatherlink.com 1.10,2013-08-31 23:01:00,
2013-08-31 19:16:00,70.4,67.0,29.75,East,92,0.0,3.0,89,0.00,,,0.07,5,weatherlink.com 1.10,2013-08-31 23:16:00,
2013-08-31 19:31:00,70.1,67.0,29.75,NE,40,1.0,2.0,90,0.00,,,0.07,0,weatherlink.com 1.10,2013-08-31 23:31:00,
2013-08-31 19:46:00,70.1,67.0,29.75,NW,317,4.0,4.0,91,0.00,,,0.07,0,weatherlink.com 1.10,2013-08-31 23:46:00,
2013-08-31 20:01:00,71.2,68.0,29.75,NNW,327,2.0,4.0,89,0.00,,,0.07,0,weatherlink.com 1.10,2013-09-01 00:01:00,
2013-08-31 20:16:00,71.2,68.0,29.75,NNW,339,3.0,4.0,89,0.00,,,0.07,0,weatherlink.com 1.10,2013-09-01 00:16:00,
2013-08-31 20:31:00,70.4,67.0,29.75,WSW,257,1.0,2.0,89,0.00,,,0.07,0,weatherlink.com 1.10,2013-09-01 00:31:00,
2013-08-31 20:46:00,69.9,67.0,29.76,West,262,1.0,2.0,91,0.00,,,0.07,0,weatherlink.com 1.10,2013-09-01 00:46:00,
2013-08-31 21:01:00,69.7,67.0,29.77,SW,225,1.0,2.0,91,0.00,,,0.07,0,weatherlink.com 1.10,2013-09-01 01:01:00,
2013-08-31 21:16:00,69.6,67.0,29.77,SSE,167,1.0,2.0,92,0.00,,,0.07,0,weatherlink.com 1.10,2013-09-01 01:16:00,
2013-08-31 21:31:00,69.4,67.0,29.77,West,270,3.0,3.0,93,0.00,,,0.07,0,weatherlink.com 1.10,2013-09-01 01:31:00,
2013-08-31 21:46:00,69.7,67.0,29.77,SSW,204,0.0,4.0,91,0.00,,,0.07,0,weatherlink.com 1.10,2013-09-01 01:46:00,
2013-08-31 22:01:00,69.8,67.0,29.78,West,265,2.0,3.0,92,0.00,,,0.07,0,weatherlink.com 1.10,2013-09-01 02:01:00,
2013-08-31 22:16:00,70.3,68.0,29.78,West,273,2.0,4.0,92,0.00,,,0.07,0,weatherlink.com 1.10,2013-09-01 02:16:00,
2013-08-31 22:31:00,69.8,67.0,29.78,West,263,4.0,4.0,91,0.00,,,0.07,0,weatherlink.com 1.10,2013-09-01 02:31:00,
2013-08-31 22:46:00,68.9,67.0,29.78,SW,215,2.0,5.0,93,0.00,,,0.07,0,weatherlink.com 1.10,2013-09-01 02:46:00,
2013-08-31 23:01:00,68.6,67.0,29.78,WNW,295,2.0,4.0,94,0.00,,,0.07,0,weatherlink.com 1.10,2013-09-01 03:01:00,
2013-08-31 23:16:00,68.6,67.0,29.78,WNW,286,3.0,5.0,94,0.00,,,0.07,0,weatherlink.com 1.10,2013-09-01 03:16:00,
2013-08-31 23:31:00,68.3,67.0,29.79,WSW,254,4.0,6.0,94,0.00,,,0.07,0,weatherlink.com 1.10,2013-09-01 03:31:00,
2013-08-31 23:46:00,68.3,67.0,29.79,West,271,2.0,5.0,94,0.00,,,0.07,0,weatherlink.com 1.10,2013-09-01 03:46:00,